sensor_id;sensor_type;location;lat;lon;timestamp;P1;durP1;ratioP1;P2;durP2;ratioP2
9807;SDS011;4943;52.550;13.462;2023-04-15T00:00:04;45.23;;;40.33;;
9807;SDS011;4943;52.550;13.462;2023-04-15T00:02:33;44.13;;;39.43;;
9807;SDS011;4943;52.550;13.462;2023-04-15T00:05:02;42.27;;;37.97;;
9807;SDS011;4943;52.550;13.462;2023-04-15T00:07:31;39.53;;;35.63;;
9807;SDS011;4943;52.550;13.462;2023-04-15T00:09:59;47.97;;;42.00;;
9807;SDS011;4943;52.550;13.462;2023-04-15T00:12:27;48.30;;;39.97;;
9807;SDS011;4943;52.550;13.462;2023-04-15T00:14:55;46.13;;;39.77;;
9807;SDS011;4943;52.550;13.462;2023-04-15T00:17:25;49.37;;;42.20;;
9807;SDS011;4943;52.550;13.462;2023-04-15T00:19:53;47.17;;;42.17;;
9807;SDS011;4943;52.550;13.462;2023-04-15T00:22:21;52.23;;;44.87;;
9807;SDS011;4943;52.550;13.462;2023-04-15T00:24:49;49.37;;;44.10;;
9807;SDS011;4943;52.550;13.462;2023-04-15T00:27:17;44.97;;;39.60;;
9807;SDS011;4943;52.550;13.462;2023-04-15T00:29:45;40.90;;;36.50;;
9807;SDS011;4943;52.550;13.462;2023-04-15T00:32:13;53.67;;;41.83;;
9807;SDS011;4943;52.550;13.462;2023-04-15T00:34:43;45.33;;;40.50;;
9807;SDS011;4943;52.550;13.462;2023-04-15T00:37:11;43.77;;;39.17;;
9807;SDS011;4943;52.550;13.462;2023-04-15T00:39:39;48.80;;;43.57;;
9807;SDS011;4943;52.550;13.462;2023-04-15T00:42:07;34.17;;;30.73;;
9807;SDS011;4943;52.550;13.462;2023-04-15T00:44:35;42.17;;;38.23;;
9807;SDS011;4943;52.550;13.462;2023-04-15T00:47:03;39.67;;;35.87;;
9807;SDS011;4943;52.550;13.462;2023-04-15T00:49:33;39.70;;;35.70;;
9807;SDS011;4943;52.550;13.462;2023-04-15T00:52:02;36.57;;;33.00;;
9807;SDS011;4943;52.550;13.462;2023-04-15T00:54:30;36.70;;;32.83;;
9807;SDS011;4943;52.550;13.462;2023-04-15T00:56:58;36.17;;;32.53;;
9807;SDS011;4943;52.550;13.462;2023-04-15T00:59:27;44.23;;;39.47;;
9807;SDS011;4943;52.550;13.462;2023-04-15T01:01:56;43.93;;;39.33;;
9807;SDS011;4943;52.550;13.462;2023-04-15T01:04:24;39.57;;;34.20;;
9807;SDS011;4943;52.550;13.462;2023-04-15T01:06:52;38.20;;;34.10;;
9807;SDS011;4943;52.550;13.462;2023-04-15T01:09:22;37.57;;;32.83;;
9807;SDS011;4943;52.550;13.462;2023-04-15T01:11:50;48.23;;;39.70;;
9807;SDS011;4943;52.550;13.462;2023-04-15T01:14:18;37.50;;;33.80;;
9807;SDS011;4943;52.550;13.462;2023-04-15T01:16:47;40.70;;;36.57;;
9807;SDS011;4943;52.550;13.462;2023-04-15T01:19:16;38.83;;;34.73;;
9807;SDS011;4943;52.550;13.462;2023-04-15T01:21:44;47.83;;;42.33;;
9807;SDS011;4943;52.550;13.462;2023-04-15T01:24:12;42.60;;;37.70;;
9807;SDS011;4943;52.550;13.462;2023-04-15T01:26:45;54.27;;;43.33;;
9807;SDS011;4943;52.550;13.462;2023-04-15T01:29:15;48.13;;;42.40;;
9807;SDS011;4943;52.550;13.462;2023-04-15T01:31:47;53.33;;;46.33;;
9807;SDS011;4943;52.550;13.462;2023-04-15T01:34:17;56.27;;;47.63;;
9807;SDS011;4943;52.550;13.462;2023-04-15T01:36:45;54.73;;;48.77;;
9807;SDS011;4943;52.550;13.462;2023-04-15T01:39:13;55.63;;;46.67;;
9807;SDS011;4943;52.550;13.462;2023-04-15T01:41:41;50.47;;;45.07;;
9807;SDS011;4943;52.550;13.462;2023-04-15T01:44:11;55.30;;;48.47;;
9807;SDS011;4943;52.550;13.462;2023-04-15T01:46:39;49.63;;;44.23;;
9807;SDS011;4943;52.550;13.462;2023-04-15T01:49:07;58.23;;;51.33;;
9807;SDS011;4943;52.550;13.462;2023-04-15T01:51:35;60.77;;;49.90;;
9807;SDS011;4943;52.550;13.462;2023-04-15T01:54:03;51.57;;;45.03;;
9807;SDS011;4943;52.550;13.462;2023-04-15T01:56:31;56.43;;;45.37;;
9807;SDS011;4943;52.550;13.462;2023-04-15T01:58:59;57.87;;;49.60;;
9807;SDS011;4943;52.550;13.462;2023-04-15T02:01:28;56.77;;;46.90;;
9807;SDS011;4943;52.550;13.462;2023-04-15T02:03:57;59.07;;;48.70;;
9807;SDS011;4943;52.550;13.462;2023-04-15T02:06:25;58.20;;;51.53;;
9807;SDS011;4943;52.550;13.462;2023-04-15T02:08:54;48.30;;;40.37;;
9807;SDS011;4943;52.550;13.462;2023-04-15T02:11:21;51.23;;;42.07;;
9807;SDS011;4943;52.550;13.462;2023-04-15T02:13:49;53.27;;;45.93;;
9807;SDS011;4943;52.550;13.462;2023-04-15T02:16:18;45.57;;;40.07;;
9807;SDS011;4943;52.550;13.462;2023-04-15T02:18:47;50.43;;;44.60;;
9807;SDS011;4943;52.550;13.462;2023-04-15T02:21:17;55.20;;;47.33;;
9807;SDS011;4943;52.550;13.462;2023-04-15T02:23:45;62.43;;;51.00;;
9807;SDS011;4943;52.550;13.462;2023-04-15T02:26:13;59.47;;;48.73;;
9807;SDS011;4943;52.550;13.462;2023-04-15T02:28:42;59.43;;;48.67;;
9807;SDS011;4943;52.550;13.462;2023-04-15T02:31:10;48.77;;;41.77;;
9807;SDS011;4943;52.550;13.462;2023-04-15T02:33:38;47.97;;;39.13;;
9807;SDS011;4943;52.550;13.462;2023-04-15T02:36:07;43.30;;;37.33;;
9807;SDS011;4943;52.550;13.462;2023-04-15T02:38:37;46.33;;;36.87;;
9807;SDS011;4943;52.550;13.462;2023-04-15T02:41:07;51.60;;;43.10;;
9807;SDS011;4943;52.550;13.462;2023-04-15T02:43:35;49.73;;;40.90;;
9807;SDS011;4943;52.550;13.462;2023-04-15T02:46:06;49.43;;;41.87;;
9807;SDS011;4943;52.550;13.462;2023-04-15T02:48:38;44.13;;;39.73;;
9807;SDS011;4943;52.550;13.462;2023-04-15T02:51:14;42.40;;;38.43;;
9807;SDS011;4943;52.550;13.462;2023-04-15T02:53:44;42.40;;;38.30;;
9807;SDS011;4943;52.550;13.462;2023-04-15T02:56:13;51.80;;;46.17;;
9807;SDS011;4943;52.550;13.462;2023-04-15T02:58:43;50.60;;;45.17;;
9807;SDS011;4943;52.550;13.462;2023-04-15T03:01:12;46.30;;;41.13;;
9807;SDS011;4943;52.550;13.462;2023-04-15T03:03:41;39.17;;;35.23;;
9807;SDS011;4943;52.550;13.462;2023-04-15T03:06:09;44.87;;;40.07;;
9807;SDS011;4943;52.550;13.462;2023-04-15T03:08:38;50.37;;;41.60;;
9807;SDS011;4943;52.550;13.462;2023-04-15T03:11:06;43.23;;;38.63;;
9807;SDS011;4943;52.550;13.462;2023-04-15T03:13:36;64.60;;;49.87;;
9807;SDS011;4943;52.550;13.462;2023-04-15T03:16:05;64.27;;;50.27;;
9807;SDS011;4943;52.550;13.462;2023-04-15T03:18:33;57.63;;;46.73;;
9807;SDS011;4943;52.550;13.462;2023-04-15T03:21:01;55.67;;;47.13;;
9807;SDS011;4943;52.550;13.462;2023-04-15T03:23:29;56.10;;;47.90;;
9807;SDS011;4943;52.550;13.462;2023-04-15T03:26:01;56.47;;;46.50;;
9807;SDS011;4943;52.550;13.462;2023-04-15T03:28:30;43.97;;;39.57;;
9807;SDS011;4943;52.550;13.462;2023-04-15T03:30:58;45.97;;;41.23;;
9807;SDS011;4943;52.550;13.462;2023-04-15T03:33:26;42.70;;;38.20;;
9807;SDS011;4943;52.550;13.462;2023-04-15T03:35:54;42.30;;;37.97;;
9807;SDS011;4943;52.550;13.462;2023-04-15T03:38:22;40.67;;;36.80;;
9807;SDS011;4943;52.550;13.462;2023-04-15T03:40:50;47.17;;;40.23;;
9807;SDS011;4943;52.550;13.462;2023-04-15T03:43:20;49.90;;;44.93;;
9807;SDS011;4943;52.550;13.462;2023-04-15T03:45:48;46.20;;;41.40;;
9807;SDS011;4943;52.550;13.462;2023-04-15T03:48:16;47.60;;;42.60;;
9807;SDS011;4943;52.550;13.462;2023-04-15T03:50:44;45.43;;;40.37;;
9807;SDS011;4943;52.550;13.462;2023-04-15T03:53:12;48.97;;;43.63;;
9807;SDS011;4943;52.550;13.462;2023-04-15T03:55:40;50.20;;;45.03;;
9807;SDS011;4943;52.550;13.462;2023-04-15T03:58:08;48.57;;;43.63;;
9807;SDS011;4943;52.550;13.462;2023-04-15T04:00:39;47.30;;;42.20;;
9807;SDS011;4943;52.550;13.462;2023-04-15T04:03:07;46.03;;;40.97;;
9807;SDS011;4943;52.550;13.462;2023-04-15T04:05:36;48.03;;;42.63;;
9807;SDS011;4943;52.550;13.462;2023-04-15T04:08:06;50.10;;;44.57;;
9807;SDS011;4943;52.550;13.462;2023-04-15T04:10:34;46.73;;;41.73;;
9807;SDS011;4943;52.550;13.462;2023-04-15T04:13:02;48.73;;;43.53;;
9807;SDS011;4943;52.550;13.462;2023-04-15T04:15:30;45.30;;;40.57;;
9807;SDS011;4943;52.550;13.462;2023-04-15T04:18:00;50.93;;;45.47;;
9807;SDS011;4943;52.550;13.462;2023-04-15T04:20:28;49.80;;;44.63;;
9807;SDS011;4943;52.550;13.462;2023-04-15T04:22:57;49.33;;;44.33;;
9807;SDS011;4943;52.550;13.462;2023-04-15T04:25:25;48.00;;;43.00;;
9807;SDS011;4943;52.550;13.462;2023-04-15T04:27:53;51.30;;;46.20;;
9807;SDS011;4943;52.550;13.462;2023-04-15T04:30:21;48.23;;;43.60;;
9807;SDS011;4943;52.550;13.462;2023-04-15T04:32:49;56.27;;;50.40;;
9807;SDS011;4943;52.550;13.462;2023-04-15T04:35:18;50.23;;;45.30;;
9807;SDS011;4943;52.550;13.462;2023-04-15T04:37:47;46.13;;;41.33;;
9807;SDS011;4943;52.550;13.462;2023-04-15T04:40:15;44.40;;;39.77;;
9807;SDS011;4943;52.550;13.462;2023-04-15T04:42:43;45.47;;;40.93;;
9807;SDS011;4943;52.550;13.462;2023-04-15T04:45:11;46.73;;;41.93;;
9807;SDS011;4943;52.550;13.462;2023-04-15T04:47:39;48.63;;;43.70;;
9807;SDS011;4943;52.550;13.462;2023-04-15T04:50:07;44.97;;;40.50;;
9807;SDS011;4943;52.550;13.462;2023-04-15T04:52:38;47.73;;;42.80;;
9807;SDS011;4943;52.550;13.462;2023-04-15T04:55:06;50.60;;;45.30;;
9807;SDS011;4943;52.550;13.462;2023-04-15T04:57:34;50.47;;;45.10;;
9807;SDS011;4943;52.550;13.462;2023-04-15T05:00:03;49.17;;;44.30;;
9807;SDS011;4943;52.550;13.462;2023-04-15T05:02:33;50.27;;;45.17;;
9807;SDS011;4943;52.550;13.462;2023-04-15T05:05:02;52.07;;;46.80;;
9807;SDS011;4943;52.550;13.462;2023-04-15T05:07:30;45.67;;;41.27;;
9807;SDS011;4943;52.550;13.462;2023-04-15T05:10:00;53.10;;;47.47;;
9807;SDS011;4943;52.550;13.462;2023-04-15T05:12:28;54.53;;;49.03;;
9807;SDS011;4943;52.550;13.462;2023-04-15T05:14:56;49.87;;;45.03;;
9807;SDS011;4943;52.550;13.462;2023-04-15T05:17:24;47.47;;;41.90;;
9807;SDS011;4943;52.550;13.462;2023-04-15T05:19:52;47.27;;;42.33;;
9807;SDS011;4943;52.550;13.462;2023-04-15T05:22:20;47.73;;;42.97;;
9807;SDS011;4943;52.550;13.462;2023-04-15T05:24:48;52.90;;;47.20;;
9807;SDS011;4943;52.550;13.462;2023-04-15T05:27:17;45.60;;;40.87;;
9807;SDS011;4943;52.550;13.462;2023-04-15T05:29:45;51.97;;;46.63;;
9807;SDS011;4943;52.550;13.462;2023-04-15T05:32:13;45.00;;;40.73;;
9807;SDS011;4943;52.550;13.462;2023-04-15T05:34:42;54.97;;;49.37;;
9807;SDS011;4943;52.550;13.462;2023-04-15T05:37:10;49.97;;;45.40;;
9807;SDS011;4943;52.550;13.462;2023-04-15T05:39:38;54.03;;;48.70;;
9807;SDS011;4943;52.550;13.462;2023-04-15T05:42:07;57.73;;;51.80;;
9807;SDS011;4943;52.550;13.462;2023-04-15T05:44:37;56.23;;;50.47;;
9807;SDS011;4943;52.550;13.462;2023-04-15T05:47:05;35.33;;;31.90;;
9807;SDS011;4943;52.550;13.462;2023-04-15T05:49:33;36.00;;;32.60;;
9807;SDS011;4943;52.550;13.462;2023-04-15T05:52:02;35.13;;;32.03;;
9807;SDS011;4943;52.550;13.462;2023-04-15T05:54:30;38.43;;;34.80;;
9807;SDS011;4943;52.550;13.462;2023-04-15T05:56:58;47.87;;;43.30;;
9807;SDS011;4943;52.550;13.462;2023-04-15T05:59:26;47.03;;;42.43;;
9807;SDS011;4943;52.550;13.462;2023-04-15T06:01:56;53.70;;;48.50;;
9807;SDS011;4943;52.550;13.462;2023-04-15T06:04:24;44.73;;;40.47;;
9807;SDS011;4943;52.550;13.462;2023-04-15T06:06:52;28.07;;;25.77;;
9807;SDS011;4943;52.550;13.462;2023-04-15T06:09:20;28.60;;;25.50;;
9807;SDS011;4943;52.550;13.462;2023-04-15T06:11:48;35.40;;;32.23;;
9807;SDS011;4943;52.550;13.462;2023-04-15T06:14:16;37.27;;;33.87;;
9807;SDS011;4943;52.550;13.462;2023-04-15T06:16:44;40.33;;;37.13;;
9807;SDS011;4943;52.550;13.462;2023-04-15T06:19:13;42.38;;;38.92;;
9807;SDS011;4943;52.550;13.462;2023-04-15T06:21:41;33.63;;;30.83;;
9807;SDS011;4943;52.550;13.462;2023-04-15T06:24:10;54.63;;;49.90;;
9807;SDS011;4943;52.550;13.462;2023-04-15T06:26:38;44.83;;;40.90;;
9807;SDS011;4943;52.550;13.462;2023-04-15T06:29:06;60.63;;;55.33;;
9807;SDS011;4943;52.550;13.462;2023-04-15T06:31:34;55.30;;;50.40;;
9807;SDS011;4943;52.550;13.462;2023-04-15T06:34:03;68.73;;;62.33;;
9807;SDS011;4943;52.550;13.462;2023-04-15T06:36:33;81.07;;;72.83;;
9807;SDS011;4943;52.550;13.462;2023-04-15T06:39:01;105.67;;;94.67;;
9807;SDS011;4943;52.550;13.462;2023-04-15T06:41:29;107.00;;;93.90;;
9807;SDS011;4943;52.550;13.462;2023-04-15T06:43:57;123.57;;;102.37;;
9807;SDS011;4943;52.550;13.462;2023-04-15T06:46:25;127.20;;;106.30;;
9807;SDS011;4943;52.550;13.462;2023-04-15T06:48:53;136.27;;;108.90;;
9807;SDS011;4943;52.550;13.462;2023-04-15T06:51:21;133.97;;;105.80;;
9807;SDS011;4943;52.550;13.462;2023-04-15T06:53:53;143.83;;;109.00;;
9807;SDS011;4943;52.550;13.462;2023-04-15T06:56:22;140.23;;;109.33;;
9807;SDS011;4943;52.550;13.462;2023-04-15T06:58:50;152.40;;;112.00;;
9807;SDS011;4943;52.550;13.462;2023-04-15T07:01:18;160.83;;;118.23;;
9807;SDS011;4943;52.550;13.462;2023-04-15T07:03:46;159.80;;;116.10;;
9807;SDS011;4943;52.550;13.462;2023-04-15T07:06:14;166.97;;;116.57;;
9807;SDS011;4943;52.550;13.462;2023-04-15T07:08:42;168.93;;;119.00;;
9807;SDS011;4943;52.550;13.462;2023-04-15T07:11:12;175.67;;;123.37;;
9807;SDS011;4943;52.550;13.462;2023-04-15T07:13:40;175.93;;;121.60;;
9807;SDS011;4943;52.550;13.462;2023-04-15T07:16:08;179.80;;;121.90;;
9807;SDS011;4943;52.550;13.462;2023-04-15T07:18:36;183.30;;;126.53;;
9807;SDS011;4943;52.550;13.462;2023-04-15T07:21:04;182.10;;;127.53;;
9807;SDS011;4943;52.550;13.462;2023-04-15T07:23:32;184.27;;;127.33;;
9807;SDS011;4943;52.550;13.462;2023-04-15T07:26:00;193.30;;;130.63;;
9807;SDS011;4943;52.550;13.462;2023-04-15T07:28:30;198.53;;;134.17;;
9807;SDS011;4943;52.550;13.462;2023-04-15T07:30:58;195.87;;;131.40;;
9807;SDS011;4943;52.550;13.462;2023-04-15T07:33:26;207.87;;;135.97;;
9807;SDS011;4943;52.550;13.462;2023-04-15T07:35:54;214.23;;;136.23;;
9807;SDS011;4943;52.550;13.462;2023-04-15T07:38:22;218.27;;;137.50;;
9807;SDS011;4943;52.550;13.462;2023-04-15T07:40:50;220.57;;;135.70;;
9807;SDS011;4943;52.550;13.462;2023-04-15T07:43:19;224.70;;;135.90;;
9807;SDS011;4943;52.550;13.462;2023-04-15T07:45:49;226.30;;;133.83;;
9807;SDS011;4943;52.550;13.462;2023-04-15T07:48:17;231.13;;;130.20;;
9807;SDS011;4943;52.550;13.462;2023-04-15T07:50:46;226.87;;;133.30;;
9807;SDS011;4943;52.550;13.462;2023-04-15T07:53:15;225.03;;;130.87;;
9807;SDS011;4943;52.550;13.462;2023-04-15T07:55:43;222.03;;;132.37;;
9807;SDS011;4943;52.550;13.462;2023-04-15T07:58:11;220.60;;;130.67;;
9807;SDS011;4943;52.550;13.462;2023-04-15T08:00:39;213.60;;;129.37;;
9807;SDS011;4943;52.550;13.462;2023-04-15T08:03:08;217.03;;;130.23;;
9807;SDS011;4943;52.550;13.462;2023-04-15T08:05:36;208.10;;;129.30;;
9807;SDS011;4943;52.550;13.462;2023-04-15T08:08:04;189.60;;;123.73;;
9807;SDS011;4943;52.550;13.462;2023-04-15T08:10:33;188.57;;;124.43;;
9807;SDS011;4943;52.550;13.462;2023-04-15T08:13:01;196.57;;;127.87;;
9807;SDS011;4943;52.550;13.462;2023-04-15T08:15:29;204.03;;;129.67;;
9807;SDS011;4943;52.550;13.462;2023-04-15T08:17:58;190.37;;;132.40;;
9807;SDS011;4943;52.550;13.462;2023-04-15T08:20:27;189.43;;;125.30;;
9807;SDS011;4943;52.550;13.462;2023-04-15T08:22:55;197.17;;;131.40;;
9807;SDS011;4943;52.550;13.462;2023-04-15T08:25:23;185.90;;;126.37;;
9807;SDS011;4943;52.550;13.462;2023-04-15T08:27:54;178.17;;;129.77;;
9807;SDS011;4943;52.550;13.462;2023-04-15T08:30:22;171.57;;;121.97;;
9807;SDS011;4943;52.550;13.462;2023-04-15T08:32:50;175.27;;;126.90;;
9807;SDS011;4943;52.550;13.462;2023-04-15T08:35:18;173.43;;;124.33;;
9807;SDS011;4943;52.550;13.462;2023-04-15T08:37:47;169.33;;;124.33;;
9807;SDS011;4943;52.550;13.462;2023-04-15T08:40:15;173.13;;;125.37;;
9807;SDS011;4943;52.550;13.462;2023-04-15T08:42:44;181.10;;;129.20;;
9807;SDS011;4943;52.550;13.462;2023-04-15T08:45:16;185.80;;;132.10;;
9807;SDS011;4943;52.550;13.462;2023-04-15T08:47:45;209.10;;;137.70;;
9807;SDS011;4943;52.550;13.462;2023-04-15T08:50:18;217.37;;;138.00;;
9807;SDS011;4943;52.550;13.462;2023-04-15T08:52:48;203.67;;;134.60;;
9807;SDS011;4943;52.550;13.462;2023-04-15T08:55:20;206.63;;;135.83;;
9807;SDS011;4943;52.550;13.462;2023-04-15T08:57:48;191.37;;;131.60;;
9807;SDS011;4943;52.550;13.462;2023-04-15T09:00:17;199.63;;;132.17;;
9807;SDS011;4943;52.550;13.462;2023-04-15T09:02:46;203.43;;;132.83;;
9807;SDS011;4943;52.550;13.462;2023-04-15T09:05:14;223.30;;;134.37;;
9807;SDS011;4943;52.550;13.462;2023-04-15T09:07:42;207.17;;;134.60;;
9807;SDS011;4943;52.550;13.462;2023-04-15T09:10:12;215.03;;;136.67;;
9807;SDS011;4943;52.550;13.462;2023-04-15T09:12:40;212.07;;;138.53;;
9807;SDS011;4943;52.550;13.462;2023-04-15T09:15:09;206.73;;;135.50;;
9807;SDS011;4943;52.550;13.462;2023-04-15T09:17:41;203.97;;;134.30;;
9807;SDS011;4943;52.550;13.462;2023-04-15T09:20:10;206.00;;;136.90;;
9807;SDS011;4943;52.550;13.462;2023-04-15T09:22:40;197.27;;;132.53;;
9807;SDS011;4943;52.550;13.462;2023-04-15T09:25:26;194.37;;;135.87;;
9807;SDS011;4943;52.550;13.462;2023-04-15T09:27:59;196.60;;;134.77;;
9807;SDS011;4943;52.550;13.462;2023-04-15T09:30:28;188.37;;;132.60;;
9807;SDS011;4943;52.550;13.462;2023-04-15T09:32:57;201.03;;;139.17;;
9807;SDS011;4943;52.550;13.462;2023-04-15T09:35:26;202.37;;;133.17;;
9807;SDS011;4943;52.550;13.462;2023-04-15T09:38:00;205.43;;;146.73;;
9807;SDS011;4943;52.550;13.462;2023-04-15T09:40:31;202.13;;;139.37;;
9807;SDS011;4943;52.550;13.462;2023-04-15T09:43:01;197.57;;;139.83;;
9807;SDS011;4943;52.550;13.462;2023-04-15T09:45:30;190.40;;;139.10;;
9807;SDS011;4943;52.550;13.462;2023-04-15T09:48:13;196.97;;;138.30;;
9807;SDS011;4943;52.550;13.462;2023-04-15T09:50:43;185.97;;;133.50;;
9807;SDS011;4943;52.550;13.462;2023-04-15T09:53:14;182.90;;;131.60;;
9807;SDS011;4943;52.550;13.462;2023-04-15T09:55:45;189.30;;;134.27;;
9807;SDS011;4943;52.550;13.462;2023-04-15T09:58:16;182.27;;;131.40;;
9807;SDS011;4943;52.550;13.462;2023-04-15T10:00:46;184.77;;;132.70;;
9807;SDS011;4943;52.550;13.462;2023-04-15T10:03:18;189.87;;;138.53;;
9807;SDS011;4943;52.550;13.462;2023-04-15T10:05:48;194.77;;;134.77;;
9807;SDS011;4943;52.550;13.462;2023-04-15T10:08:18;194.33;;;137.90;;
9807;SDS011;4943;52.550;13.462;2023-04-15T10:10:49;188.13;;;132.17;;
9807;SDS011;4943;52.550;13.462;2023-04-15T10:13:18;187.40;;;134.30;;
9807;SDS011;4943;52.550;13.462;2023-04-15T10:15:49;190.30;;;132.83;;
9807;SDS011;4943;52.550;13.462;2023-04-15T10:18:22;184.63;;;130.73;;
9807;SDS011;4943;52.550;13.462;2023-04-15T10:20:52;179.97;;;133.07;;
9807;SDS011;4943;52.550;13.462;2023-04-15T10:23:21;178.67;;;129.97;;
9807;SDS011;4943;52.550;13.462;2023-04-15T10:25:52;173.33;;;130.37;;
9807;SDS011;4943;52.550;13.462;2023-04-15T10:28:21;169.70;;;129.90;;
9807;SDS011;4943;52.550;13.462;2023-04-15T10:30:49;174.43;;;136.67;;
9807;SDS011;4943;52.550;13.462;2023-04-15T10:33:19;165.38;;;128.73;;
9807;SDS011;4943;52.550;13.462;2023-04-15T10:35:49;162.40;;;129.60;;
9807;SDS011;4943;52.550;13.462;2023-04-15T10:38:31;170.33;;;138.97;;
9807;SDS011;4943;52.550;13.462;2023-04-15T10:41:12;167.40;;;133.17;;
9807;SDS011;4943;52.550;13.462;2023-04-15T10:43:48;158.80;;;129.83;;
9807;SDS011;4943;52.550;13.462;2023-04-15T10:46:20;170.40;;;137.67;;
9807;SDS011;4943;52.550;13.462;2023-04-15T10:48:49;171.43;;;139.43;;
9807;SDS011;4943;52.550;13.462;2023-04-15T10:51:28;181.82;;;146.63;;
9807;SDS011;4943;52.550;13.462;2023-04-15T10:53:57;164.95;;;146.55;;
9807;SDS011;4943;52.550;13.462;2023-04-15T10:56:28;155.73;;;139.05;;
9807;SDS011;4943;52.550;13.462;2023-04-15T10:58:57;169.77;;;151.40;;
9807;SDS011;4943;52.550;13.462;2023-04-15T11:07:34;156.35;;;140.52;;
9807;SDS011;4943;52.550;13.462;2023-04-15T11:13:25;175.32;;;149.27;;
9807;SDS011;4943;52.550;13.462;2023-04-15T11:15:57;196.10;;;160.77;;
9807;SDS011;4943;52.550;13.462;2023-04-15T11:18:28;186.90;;;147.17;;
9807;SDS011;4943;52.550;13.462;2023-04-15T11:20:59;157.93;;;139.77;;
9807;SDS011;4943;52.550;13.462;2023-04-15T11:23:32;191.70;;;149.83;;
9807;SDS011;4943;52.550;13.462;2023-04-15T11:26:02;191.23;;;149.93;;
9807;SDS011;4943;52.550;13.462;2023-04-15T11:28:36;172.93;;;143.17;;
9807;SDS011;4943;52.550;13.462;2023-04-15T11:31:06;172.83;;;143.83;;
9807;SDS011;4943;52.550;13.462;2023-04-15T11:33:37;174.87;;;141.47;;
9807;SDS011;4943;52.550;13.462;2023-04-15T11:36:11;183.40;;;142.60;;
9807;SDS011;4943;52.550;13.462;2023-04-15T11:38:43;173.87;;;140.30;;
9807;SDS011;4943;52.550;13.462;2023-04-15T11:41:13;163.30;;;135.83;;
9807;SDS011;4943;52.550;13.462;2023-04-15T11:43:43;167.60;;;137.07;;
9807;SDS011;4943;52.550;13.462;2023-04-15T11:46:11;162.20;;;135.60;;
9807;SDS011;4943;52.550;13.462;2023-04-15T11:48:41;153.83;;;129.00;;
9807;SDS011;4943;52.550;13.462;2023-04-15T11:51:10;171.80;;;136.88;;
9807;SDS011;4943;52.550;13.462;2023-04-15T11:53:40;170.07;;;134.33;;
9807;SDS011;4943;52.550;13.462;2023-04-15T11:56:09;168.07;;;134.50;;
9807;SDS011;4943;52.550;13.462;2023-04-15T11:58:45;168.40;;;133.17;;
9807;SDS011;4943;52.550;13.462;2023-04-15T12:01:16;171.20;;;132.27;;
9807;SDS011;4943;52.550;13.462;2023-04-15T12:03:45;153.70;;;126.33;;
9807;SDS011;4943;52.550;13.462;2023-04-15T12:06:15;169.83;;;131.10;;
9807;SDS011;4943;52.550;13.462;2023-04-15T12:08:51;171.10;;;133.50;;
9807;SDS011;4943;52.550;13.462;2023-04-15T12:11:27;168.80;;;132.07;;
9807;SDS011;4943;52.550;13.462;2023-04-15T12:14:04;169.00;;;138.80;;
9807;SDS011;4943;52.550;13.462;2023-04-15T12:16:34;166.30;;;134.17;;
9807;SDS011;4943;52.550;13.462;2023-04-15T12:19:15;167.43;;;135.53;;
9807;SDS011;4943;52.550;13.462;2023-04-15T12:21:47;165.27;;;135.93;;
9807;SDS011;4943;52.550;13.462;2023-04-15T12:24:18;158.47;;;137.37;;
9807;SDS011;4943;52.550;13.462;2023-04-15T12:26:49;171.10;;;139.30;;
9807;SDS011;4943;52.550;13.462;2023-04-15T12:29:19;172.25;;;146.80;;
9807;SDS011;4943;52.550;13.462;2023-04-15T12:31:52;171.98;;;149.27;;
9807;SDS011;4943;52.550;13.462;2023-04-15T12:34:25;182.75;;;151.45;;
9807;SDS011;4943;52.550;13.462;2023-04-15T12:36:55;187.65;;;149.48;;
9807;SDS011;4943;52.550;13.462;2023-04-15T12:39:24;187.97;;;157.63;;
9807;SDS011;4943;52.550;13.462;2023-04-15T12:41:56;192.70;;;157.02;;
9807;SDS011;4943;52.550;13.462;2023-04-15T12:44:26;177.03;;;150.70;;
9807;SDS011;4943;52.550;13.462;2023-04-15T12:46:55;169.05;;;149.27;;
9807;SDS011;4943;52.550;13.462;2023-04-15T12:49:23;179.20;;;151.95;;
9807;SDS011;4943;52.550;13.462;2023-04-15T12:51:52;187.30;;;154.37;;
9807;SDS011;4943;52.550;13.462;2023-04-15T12:54:21;182.53;;;156.20;;
9807;SDS011;4943;52.550;13.462;2023-04-15T12:56:50;178.40;;;149.70;;
9807;SDS011;4943;52.550;13.462;2023-04-15T12:59:18;193.77;;;159.88;;
9807;SDS011;4943;52.550;13.462;2023-04-15T13:01:48;176.57;;;150.38;;
9807;SDS011;4943;52.550;13.462;2023-04-15T13:04:18;190.60;;;157.27;;
9807;SDS011;4943;52.550;13.462;2023-04-15T13:06:47;159.60;;;135.98;;
9807;SDS011;4943;52.550;13.462;2023-04-15T13:09:15;156.70;;;139.23;;
9807;SDS011;4943;52.550;13.462;2023-04-15T13:11:43;168.40;;;149.55;;
9807;SDS011;4943;52.550;13.462;2023-04-15T13:14:11;153.93;;;137.93;;
9807;SDS011;4943;52.550;13.462;2023-04-15T13:16:39;171.38;;;148.93;;
9807;SDS011;4943;52.550;13.462;2023-04-15T13:19:08;156.80;;;140.30;;
9807;SDS011;4943;52.550;13.462;2023-04-15T13:21:36;177.40;;;149.10;;
9807;SDS011;4943;52.550;13.462;2023-04-15T13:24:04;162.27;;;137.88;;
9807;SDS011;4943;52.550;13.462;2023-04-15T13:26:33;162.48;;;138.13;;
9807;SDS011;4943;52.550;13.462;2023-04-15T13:29:01;162.48;;;142.95;;
9807;SDS011;4943;52.550;13.462;2023-04-15T13:31:29;157.02;;;133.45;;
9807;SDS011;4943;52.550;13.462;2023-04-15T13:33:57;178.52;;;143.23;;
9807;SDS011;4943;52.550;13.462;2023-04-15T13:36:27;193.60;;;147.73;;
9807;SDS011;4943;52.550;13.462;2023-04-15T13:38:55;188.57;;;143.83;;
9807;SDS011;4943;52.550;13.462;2023-04-15T13:41:25;167.80;;;136.50;;
9807;SDS011;4943;52.550;13.462;2023-04-15T13:43:53;176.07;;;140.88;;
9807;SDS011;4943;52.550;13.462;2023-04-15T13:46:21;170.07;;;136.47;;
9807;SDS011;4943;52.550;13.462;2023-04-15T13:48:49;173.30;;;136.90;;
9807;SDS011;4943;52.550;13.462;2023-04-15T13:51:17;184.87;;;140.37;;
9807;SDS011;4943;52.550;13.462;2023-04-15T13:53:46;175.83;;;136.83;;
9807;SDS011;4943;52.550;13.462;2023-04-15T13:56:15;171.73;;;136.53;;
9807;SDS011;4943;52.550;13.462;2023-04-15T13:58:43;153.23;;;128.00;;
9807;SDS011;4943;52.550;13.462;2023-04-15T14:01:11;158.43;;;132.80;;
9807;SDS011;4943;52.550;13.462;2023-04-15T14:03:39;157.53;;;129.83;;
9807;SDS011;4943;52.550;13.462;2023-04-15T14:06:07;162.17;;;132.70;;
9807;SDS011;4943;52.550;13.462;2023-04-15T14:08:36;157.77;;;129.07;;
9807;SDS011;4943;52.550;13.462;2023-04-15T14:11:05;150.40;;;124.67;;
9807;SDS011;4943;52.550;13.462;2023-04-15T14:13:33;151.97;;;128.53;;
9807;SDS011;4943;52.550;13.462;2023-04-15T14:16:02;151.07;;;123.87;;
9807;SDS011;4943;52.550;13.462;2023-04-15T14:18:31;147.27;;;123.07;;
9807;SDS011;4943;52.550;13.462;2023-04-15T14:20:59;179.20;;;135.50;;
9807;SDS011;4943;52.550;13.462;2023-04-15T14:23:27;176.10;;;130.87;;
9807;SDS011;4943;52.550;13.462;2023-04-15T14:25:55;177.43;;;136.67;;
9807;SDS011;4943;52.550;13.462;2023-04-15T14:28:25;161.37;;;125.77;;
9807;SDS011;4943;52.550;13.462;2023-04-15T14:30:53;162.93;;;127.37;;
9807;SDS011;4943;52.550;13.462;2023-04-15T14:33:22;170.27;;;132.33;;
9807;SDS011;4943;52.550;13.462;2023-04-15T14:35:50;171.93;;;131.93;;
9807;SDS011;4943;52.550;13.462;2023-04-15T14:38:18;178.13;;;135.00;;
9807;SDS011;4943;52.550;13.462;2023-04-15T14:40:47;171.37;;;134.10;;